Time;durP1;ratioP1;P1;durP2;ratioP2;P2;SDS_P1;SDS_P2;PMS_P1;PMS_P2;Temp;Humidity;BMP_temperature;BMP_pressure;BME280_temperature;BME280_humidity;BME280_pressure;Samples;Min_cycle;Max_cycle;Signal;HPM_P1;HPM_P2
2023/05/28 00:00:17;;;;;;;9.50;3.35;;;10.40;99.90;;;;;;5076153;28;20396;-82
2023/05/28 00:02:43;;;;;;;6.57;3.70;;;10.40;99.90;;;;;;5073800;28;20429;-82
2023/05/28 00:05:09;;;;;;;7.88;3.13;;;10.40;99.90;;;;;;5080279;28;20035;-82
2023/05/28 00:07:35;;;;;;;6.50;3.17;;;10.30;99.90;;;;;;5071528;28;20017;-82
2023/05/28 00:10:01;;;;;;;6.85;3.47;;;10.30;99.90;;;;;;5087408;28;20028;-82
2023/05/28 00:12:26;;;;;;;7.13;3.33;;;10.40;99.90;;;;;;5079690;28;20071;-82
2023/05/28 00:14:55;;;;;;;7.70;3.60;;;10.40;99.90;;;;;;5071972;28;20070;-82
2023/05/28 00:17:21;;;;;;;11.90;4.53;;;10.40;99.90;;;;;;5077904;28;20055;-82
2023/05/28 00:19:46;;;;;;;10.88;4.20;;;10.30;99.90;;;;;;5083295;28;20062;-82
2023/05/28 00:22:12;;;;;;;14.20;3.58;;;10.30;99.90;;;;;;5085706;28;20532;-82
2023/05/28 00:24:37;;;;;;;5.93;3.30;;;10.20;99.90;;;;;;5082021;28;20025;-82
2023/05/28 00:27:04;;;;;;;15.55;4.55;;;10.20;99.90;;;;;;5085661;28;20062;-83
2023/05/28 00:29:30;;;;;;;14.20;4.45;;;10.20;99.90;;;;;;5093071;28;20060;-83
2023/05/28 00:31:56;;;;;;;8.95;4.18;;;10.10;99.90;;;;;;5081177;28;20051;-82
2023/05/28 00:34:25;;;;;;;13.68;4.78;;;10.10;99.90;;;;;;5068166;28;20019;-82
2023/05/28 00:36:53;;;;;;;15.48;4.15;;;10.10;99.90;;;;;;5086331;28;20029;-82
2023/05/28 00:39:19;;;;;;;7.78;3.55;;;10.00;99.90;;;;;;5084874;28;20027;-82
2023/05/28 00:41:47;;;;;;;11.13;3.83;;;10.00;99.90;;;;;;5063360;28;20029;-82
2023/05/28 00:44:12;;;;;;;8.77;3.40;;;10.00;99.90;;;;;;5082583;28;20028;-82
2023/05/28 00:46:44;;;;;;;7.85;3.75;;;10.00;99.90;;;;;;5081934;28;20031;-82
2023/05/28 00:49:11;;;;;;;7.22;3.15;;;9.90;99.90;;;;;;5084538;28;20243;-82
2023/05/28 00:51:38;;;;;;;12.48;3.35;;;10.00;99.90;;;;;;5082143;28;20126;-83
2023/05/28 00:54:04;;;;;;;13.27;4.57;;;10.00;99.90;;;;;;5094774;28;20032;-82
2023/05/28 00:56:31;;;;;;;10.45;4.13;;;10.00;99.90;;;;;;5094927;28;20051;-82
2023/05/28 00:58:59;;;;;;;10.63;4.05;;;9.90;99.90;;;;;;5080065;28;20122;-83
2023/05/28 01:01:26;;;;;;;8.55;3.47;;;9.90;99.90;;;;;;5084037;28;20027;-82
2023/05/28 01:03:52;;;;;;;16.63;4.72;;;9.90;99.90;;;;;;5083107;28;20179;-82
2023/05/28 01:06:20;;;;;;;7.32;3.88;;;9.90;99.90;;;;;;5082236;28;20128;-82
2023/05/28 01:08:52;;;;;;;9.25;3.95;;;9.90;99.90;;;;;;5082345;28;20074;-82
2023/05/28 01:11:20;;;;;;;10.77;3.88;;;9.90;99.90;;;;;;5073966;28;20567;-82
2023/05/28 01:13:47;;;;;;;12.82;4.13;;;9.90;99.90;;;;;;5082415;28;20032;-82
2023/05/28 01:16:16;;;;;;;8.60;4.50;;;9.80;99.90;;;;;;5080253;28;20058;-82
2023/05/28 01:18:44;;;;;;;8.95;3.60;;;9.80;99.90;;;;;;5068010;28;20029;-82
2023/05/28 01:21:10;;;;;;;8.93;3.53;;;9.80;99.90;;;;;;5073181;28;20028;-82
2023/05/28 01:23:47;;;;;;;9.02;3.92;;;9.70;99.90;;;;;;5068982;28;20534;-82
2023/05/28 01:26:14;;;;;;;13.52;3.78;;;9.70;99.90;;;;;;5079690;28;20051;-82
2023/05/28 01:28:44;;;;;;;13.18;4.20;;;9.70;99.90;;;;;;5084325;28;20044;-82
2023/05/28 01:31:10;;;;;;;9.05;3.95;;;9.60;99.90;;;;;;5079383;28;20040;-82
2023/05/28 01:33:38;;;;;;;12.02;4.78;;;9.60;99.90;;;;;;5085906;28;20035;-82
2023/05/28 01:36:07;;;;;;;12.00;3.85;;;9.60;99.90;;;;;;5080348;28;20064;-82
2023/05/28 01:38:36;;;;;;;8.05;3.30;;;9.60;99.90;;;;;;5084370;28;20032;-82
2023/05/28 01:41:02;;;;;;;7.88;3.47;;;9.60;99.90;;;;;;5085195;28;20031;-82
2023/05/28 01:43:31;;;;;;;10.93;3.40;;;9.50;99.90;;;;;;5075969;28;20079;-82
2023/05/28 01:45:57;;;;;;;5.55;3.15;;;9.50;99.90;;;;;;5078789;28;20028;-82
2023/05/28 01:48:23;;;;;;;8.40;3.17;;;9.50;99.90;;;;;;5073573;28;20571;-83
2023/05/28 01:50:51;;;;;;;8.80;3.53;;;9.60;99.90;;;;;;5083485;28;20024;-83
2023/05/28 01:53:17;;;;;;;9.77;4.57;;;9.50;99.90;;;;;;5082793;28;20646;-82
2023/05/28 01:55:42;;;;;;;9.00;3.55;;;9.50;99.90;;;;;;5082203;28;20050;-82
2023/05/28 01:58:10;;;;;;;10.55;4.47;;;9.50;99.90;;;;;;5083535;28;20027;-83
2023/05/28 02:00:58;;;;;;;11.18;4.15;;;9.50;99.90;;;;;;5079882;28;20036;-83
2023/05/28 02:03:24;;;;;;;7.32;3.38;;;9.50;99.90;;;;;;5057684;28;20024;-82
2023/05/28 02:05:50;;;;;;;4.85;2.65;;;9.40;99.90;;;;;;5078982;28;20374;-82
2023/05/28 02:08:15;;;;;;;8.30;3.78;;;9.40;99.90;;;;;;5091570;28;20023;-82
2023/05/28 02:10:42;;;;;;;8.77;3.80;;;9.40;99.90;;;;;;5085569;28;20085;-82
2023/05/28 02:13:08;;;;;;;8.30;3.33;;;9.40;99.90;;;;;;5078496;28;20034;-83
2023/05/28 02:15:33;;;;;;;5.38;2.85;;;9.40;99.90;;;;;;5085775;28;21459;-82
2023/05/28 02:18:02;;;;;;;8.00;3.10;;;9.40;99.90;;;;;;5073269;28;20066;-82
2023/05/28 02:20:28;;;;;;;9.52;3.05;;;9.40;99.90;;;;;;5073220;28;20070;-82
2023/05/28 02:22:54;;;;;;;6.57;3.35;;;9.40;99.90;;;;;;5084984;28;20757;-83
2023/05/28 02:25:20;;;;;;;4.85;3.30;;;9.40;99.90;;;;;;5072278;28;20044;-82
2023/05/28 02:27:47;;;;;;;8.80;3.28;;;9.40;99.90;;;;;;5080480;28;20107;-82
2023/05/28 02:30:14;;;;;;;8.32;3.90;;;9.40;99.90;;;;;;5081008;28;20024;-82
2023/05/28 02:32:39;;;;;;;5.80;3.00;;;9.30;99.90;;;;;;5083865;28;20036;-82
2023/05/28 02:35:06;;;;;;;10.00;3.65;;;9.30;99.90;;;;;;5087130;28;20084;-82
2023/05/28 02:37:32;;;;;;;10.32;3.67;;;9.30;99.90;;;;;;5075067;28;20489;-82
2023/05/28 02:39:58;;;;;;;8.65;4.18;;;9.20;99.90;;;;;;5075708;28;20028;-82
2023/05/28 02:42:23;;;;;;;5.68;3.30;;;9.20;99.90;;;;;;5075532;28;20031;-82
2023/05/28 02:44:49;;;;;;;5.50;3.33;;;9.20;99.90;;;;;;5086922;28;20044;-82
2023/05/28 02:47:15;;;;;;;11.38;3.65;;;9.20;99.90;;;;;;5079466;28;20024;-82
2023/05/28 02:49:40;;;;;;;4.70;3.10;;;9.30;99.90;;;;;;5085384;28;20143;-82
2023/05/28 02:52:06;;;;;;;7.90;3.97;;;9.30;99.90;;;;;;5076974;28;20122;-82
2023/05/28 02:54:31;;;;;;;9.93;3.45;;;9.20;99.90;;;;;;5079111;28;20028;-83
2023/05/28 02:56:57;;;;;;;10.93;4.05;;;9.20;99.90;;;;;;5071843;28;20095;-83
2023/05/28 02:59:23;;;;;;;6.03;3.67;;;9.10;99.90;;;;;;5083872;28;20077;-82
2023/05/28 03:01:49;;;;;;;6.70;3.10;;;9.00;99.90;;;;;;5078707;28;20028;-82
2023/05/28 03:04:14;;;;;;;6.35;3.90;;;9.00;99.90;;;;;;5076718;28;20036;-82
2023/05/28 03:06:41;;;;;;;20.02;3.40;;;9.00;99.90;;;;;;5081776;28;20403;-83
2023/05/28 03:09:06;;;;;;;8.88;3.40;;;9.00;99.90;;;;;;5064745;28;20035;-82
2023/05/28 03:11:32;;;;;;;6.68;3.10;;;8.90;99.90;;;;;;5072855;28;20374;-82
2023/05/28 03:13:58;;;;;;;5.85;3.00;;;8.90;99.90;;;;;;5071092;28;20017;-82
2023/05/28 03:16:24;;;;;;;8.90;3.38;;;8.80;99.90;;;;;;5080496;28;20036;-82
2023/05/28 03:18:50;;;;;;;6.55;2.90;;;8.90;99.90;;;;;;5076749;28;20015;-82
2023/05/28 03:21:15;;;;;;;5.53;3.50;;;8.90;99.90;;;;;;5077708;28;20024;-82
2023/05/28 03:23:41;;;;;;;4.90;3.25;;;8.80;99.90;;;;;;5079389;28;20052;-82
2023/05/28 03:26:06;;;;;;;6.20;3.22;;;8.80;99.90;;;;;;5083212;28;20073;-82
2023/05/28 03:28:32;;;;;;;6.40;3.13;;;8.80;99.90;;;;;;5078928;28;20047;-82
2023/05/28 03:31:01;;;;;;;8.30;3.03;;;8.80;99.90;;;;;;5071025;28;20548;-83
2023/05/28 03:33:27;;;;;;;6.82;3.75;;;8.80;99.90;;;;;;5079929;28;20436;-82
2023/05/28 03:35:52;;;;;;;9.77;3.25;;;8.80;99.90;;;;;;5078585;28;20107;-82
2023/05/28 03:38:18;;;;;;;5.70;3.28;;;8.70;99.90;;;;;;5074935;28;20378;-82
2023/05/28 03:40:43;;;;;;;4.50;3.05;;;8.70;99.90;;;;;;5072460;28;20024;-82
2023/05/28 03:43:09;;;;;;;5.03;3.10;;;8.70;99.90;;;;;;5078867;28;20033;-82
2023/05/28 03:45:35;;;;;;;7.25;3.33;;;8.70;99.90;;;;;;5075259;28;20020;-83
2023/05/28 03:48:02;;;;;;;4.10;3.03;;;8.70;99.90;;;;;;5076180;28;20028;-82
2023/05/28 03:50:28;;;;;;;7.88;3.30;;;8.70;99.90;;;;;;5084102;28;20036;-82
2023/05/28 03:52:53;;;;;;;3.72;3.03;;;8.70;99.90;;;;;;5079890;28;20433;-82
2023/05/28 03:55:19;;;;;;;8.20;2.88;;;8.70;99.90;;;;;;5075446;28;20059;-82
2023/05/28 03:57:47;;;;;;;3.75;2.75;;;8.70;99.90;;;;;;5076468;28;20120;-82
2023/05/28 04:00:14;;;;;;;7.13;3.03;;;8.70;99.90;;;;;;5082132;28;20024;-82
2023/05/28 04:02:39;;;;;;;8.18;3.42;;;8.70;99.90;;;;;;5087142;28;20024;-82
2023/05/28 04:05:05;;;;;;;5.90;3.17;;;8.70;99.90;;;;;;5070976;28;20127;-83
2023/05/28 04:07:31;;;;;;;10.30;3.92;;;8.70;99.90;;;;;;5082295;28;20020;-83
2023/05/28 04:09:58;;;;;;;8.38;3.22;;;8.80;99.90;;;;;;5076701;28;20028;-82
2023/05/28 04:12:23;;;;;;;6.55;3.22;;;8.80;99.90;;;;;;5080256;28;20109;-83
2023/05/28 04:14:51;;;;;;;5.28;2.75;;;8.90;99.90;;;;;;5079859;28;20059;-82
2023/05/28 04:17:18;;;;;;;13.32;3.47;;;8.90;99.90;;;;;;5076841;28;20028;-83
2023/05/28 04:19:44;;;;;;;4.35;2.78;;;9.00;99.90;;;;;;5070413;28;20032;-83
2023/05/28 04:22:09;;;;;;;8.38;2.90;;;9.10;99.90;;;;;;5081310;28;20035;-83
2023/05/28 04:24:35;;;;;;;3.47;2.33;;;9.10;99.90;;;;;;5087046;28;20057;-83
2023/05/28 04:27:01;;;;;;;6.38;3.08;;;9.20;99.90;;;;;;5084494;28;20050;-83
2023/05/28 04:29:29;;;;;;;9.43;2.95;;;9.30;99.90;;;;;;5061427;28;20043;-83
2023/05/28 04:31:57;;;;;;;5.03;2.90;;;9.40;99.90;;;;;;5083472;28;20401;-83
2023/05/28 04:34:24;;;;;;;4.05;2.75;;;9.40;99.90;;;;;;5088730;28;20024;-83
2023/05/28 04:36:51;;;;;;;5.13;3.38;;;9.50;99.90;;;;;;5084532;28;20020;-82
2023/05/28 04:39:17;;;;;;;6.13;2.80;;;9.50;99.90;;;;;;5077605;28;20051;-83
2023/05/28 04:41:43;;;;;;;3.75;2.78;;;9.50;99.90;;;;;;5083916;28;20053;-83
2023/05/28 04:44:10;;;;;;;7.18;2.70;;;9.60;99.90;;;;;;5082593;28;20024;-82
2023/05/28 04:46:36;;;;;;;4.22;2.70;;;9.70;99.90;;;;;;5084142;28;20107;-83
2023/05/28 04:49:02;;;;;;;3.65;2.40;;;9.70;99.90;;;;;;5084116;28;20704;-82
2023/05/28 04:51:28;;;;;;;5.05;2.75;;;9.80;99.90;;;;;;5097711;28;20126;-82
2023/05/28 04:53:53;;;;;;;3.65;2.15;;;9.90;99.90;;;;;;5096840;28;20501;-83
2023/05/28 04:56:19;;;;;;;3.88;2.75;;;10.00;99.90;;;;;;5098777;28;20044;-82
2023/05/28 04:58:46;;;;;;;3.92;2.42;;;10.10;99.90;;;;;;5089945;28;20020;-83
2023/05/28 05:01:14;;;;;;;4.55;2.80;;;10.10;99.90;;;;;;5081332;28;20035;-83
2023/05/28 05:03:40;;;;;;;4.93;2.60;;;10.20;99.90;;;;;;5079704;28;20012;-82
2023/05/28 05:06:07;;;;;;;4.65;2.67;;;10.30;99.90;;;;;;5081595;28;20050;-82
2023/05/28 05:08:32;;;;;;;3.38;2.55;;;10.40;99.90;;;;;;5086478;28;20031;-83
2023/05/28 05:11:00;;;;;;;5.47;2.58;;;10.50;99.90;;;;;;5081520;28;20020;-83
2023/05/28 05:13:27;;;;;;;6.47;2.92;;;10.50;99.90;;;;;;5076125;28;20070;-83
2023/05/28 05:15:53;;;;;;;10.93;3.00;;;10.60;99.90;;;;;;5081938;28;20028;-82
2023/05/28 05:18:18;;;;;;;5.97;2.58;;;10.70;99.90;;;;;;5083857;28;20112;-83
2023/05/28 05:20:45;;;;;;;6.90;2.85;;;10.80;99.90;;;;;;5077148;28;20537;-82
2023/05/28 05:23:11;;;;;;;3.28;2.50;;;10.90;99.90;;;;;;5098445;28;20542;-82
2023/05/28 05:25:36;;;;;;;4.13;2.90;;;11.00;99.90;;;;;;5092378;28;20063;-82
2023/05/28 05:28:02;;;;;;;5.53;2.38;;;11.10;99.90;;;;;;5093417;28;20106;-82
2023/05/28 05:30:30;;;;;;;4.97;2.70;;;11.20;99.90;;;;;;5086733;28;20028;-82
2023/05/28 05:32:56;;;;;;;10.80;3.20;;;11.30;99.90;;;;;;5078918;28;20124;-82
2023/05/28 05:35:21;;;;;;;5.43;2.90;;;11.40;99.90;;;;;;5082245;28;20112;-82
2023/05/28 05:37:47;;;;;;;6.13;2.85;;;11.50;99.90;;;;;;5076835;28;20040;-82
2023/05/28 05:40:12;;;;;;;9.77;3.13;;;11.60;99.90;;;;;;5079443;28;20047;-82
2023/05/28 05:42:38;;;;;;;5.15;2.63;;;11.70;99.90;;;;;;5081075;28;20024;-82
2023/05/28 05:45:05;;;;;;;8.48;3.22;;;11.80;99.90;;;;;;5073487;28;20024;-82
2023/05/28 05:47:31;;;;;;;6.65;3.13;;;11.80;99.90;;;;;;5079235;28;20031;-82
2023/05/28 05:49:57;;;;;;;12.13;4.15;;;12.00;99.90;;;;;;5073977;28;20028;-82
2023/05/28 05:52:23;;;;;;;7.95;3.58;;;12.10;99.90;;;;;;5080086;28;20127;-81
2023/05/28 05:54:49;;;;;;;5.90;3.58;;;12.20;99.90;;;;;;5085471;28;20103;-82
2023/05/28 05:57:14;;;;;;;8.63;4.22;;;12.30;99.90;;;;;;5063503;28;20331;-82
2023/05/28 05:59:40;;;;;;;11.00;3.65;;;12.40;99.90;;;;;;5088829;28;20065;-82
2023/05/28 06:02:06;;;;;;;7.20;3.97;;;12.50;99.90;;;;;;5084251;28;20028;-82
2023/05/28 06:04:33;;;;;;;17.80;5.00;;;12.50;99.90;;;;;;5080611;28;20040;-82
2023/05/28 06:07:06;;;;;;;14.10;6.15;;;12.60;99.90;;;;;;5076035;28;20477;-82
2023/05/28 06:09:35;;;;;;;18.73;5.07;;;12.70;99.90;;;;;;5079667;28;20028;-81
2023/05/28 06:12:01;;;;;;;13.30;4.95;;;12.80;99.90;;;;;;5080450;28;20409;-82
2023/05/28 06:14:27;;;;;;;19.00;4.90;;;12.90;99.90;;;;;;5078165;28;20108;-83
2023/05/28 06:16:53;;;;;;;15.57;5.72;;;13.00;99.90;;;;;;5073874;28;20967;-82
2023/05/28 06:19:21;;;;;;;12.32;4.55;;;13.10;99.90;;;;;;5077053;28;20054;-82
2023/05/28 06:21:47;;;;;;;17.42;5.43;;;13.10;99.90;;;;;;5081692;28;20085;-81
2023/05/28 06:24:13;;;;;;;13.70;3.95;;;13.20;99.90;;;;;;5081970;28;20032;-81
2023/05/28 06:26:39;;;;;;;14.80;4.63;;;13.20;99.90;;;;;;5059117;28;20513;-81
2023/05/28 06:29:07;;;;;;;9.77;4.00;;;13.20;99.90;;;;;;5076896;28;20172;-82
2023/05/28 06:31:33;;;;;;;15.07;4.10;;;13.30;99.90;;;;;;5079792;28;20040;-81
2023/05/28 06:33:58;;;;;;;9.27;4.03;;;13.40;99.90;;;;;;5072000;28;20043;-82
2023/05/28 06:36:24;;;;;;;10.90;3.75;;;13.40;99.90;;;;;;5056587;28;20028;-81
2023/05/28 06:38:50;;;;;;;10.68;3.45;;;13.50;99.90;;;;;;5070085;28;20127;-81
2023/05/28 06:41:15;;;;;;;12.73;3.88;;;13.50;99.90;;;;;;5072999;28;20397;-81
2023/05/28 06:43:41;;;;;;;14.93;3.72;;;13.60;99.90;;;;;;5078233;28;20032;-81
2023/05/28 06:46:08;;;;;;;14.52;4.07;;;13.70;99.90;;;;;;5081130;28;20031;-82
2023/05/28 06:48:33;;;;;;;12.38;4.40;;;13.80;99.90;;;;;;5072107;28;20028;-81
2023/05/28 06:50:59;;;;;;;16.13;3.95;;;13.80;99.90;;;;;;5076260;28;20028;-82
2023/05/28 06:53:25;;;;;;;6.45;3.03;;;13.90;99.90;;;;;;5076444;28;20033;-82
2023/05/28 06:55:51;;;;;;;10.93;3.83;;;14.00;99.90;;;;;;5076271;28;20123;-81
2023/05/28 06:58:16;;;;;;;9.45;3.97;;;14.00;99.90;;;;;;5064613;28;20111;-82
2023/05/28 07:00:42;;;;;;;11.20;3.70;;;14.00;99.90;;;;;;5072394;28;20393;-81
2023/05/28 07:03:10;;;;;;;12.55;3.42;;;14.00;99.90;;;;;;5062795;28;20044;-81
2023/05/28 07:05:36;;;;;;;11.05;3.75;;;14.10;99.90;;;;;;5071435;28;20028;-81
2023/05/28 07:08:02;;;;;;;11.27;3.63;;;14.20;99.90;;;;;;5079975;28;20085;-81
2023/05/28 07:10:28;;;;;;;13.30;4.95;;;14.30;99.90;;;;;;5073564;28;20035;-82
2023/05/28 07:12:56;;;;;;;11.65;3.92;;;14.30;99.90;;;;;;5074032;28;20382;-82
2023/05/28 07:15:22;;;;;;;10.77;3.40;;;14.40;99.90;;;;;;5074006;28;20032;-83
2023/05/28 07:17:47;;;;;;;9.63;3.85;;;14.40;99.90;;;;;;5071753;28;20038;-83
2023/05/28 07:20:13;;;;;;;14.55;4.25;;;14.40;99.90;;;;;;5070008;28;20099;-84
2023/05/28 07:22:45;;;;;;;10.65;3.30;;;14.50;99.90;;;;;;5077699;28;20027;-83
2023/05/28 07:25:11;;;;;;;11.95;3.80;;;14.60;99.90;;;;;;5077600;28;20035;-84
2023/05/28 07:27:36;;;;;;;8.73;4.07;;;14.70;99.90;;;;;;5077084;28;20062;-83
2023/05/28 07:30:05;;;;;;;11.35;4.25;;;14.70;99.90;;;;;;5071774;28;20047;-84
2023/05/28 07:32:31;;;;;;;12.38;3.75;;;14.80;99.90;;;;;;5073019;28;20118;-83
2023/05/28 07:34:56;;;;;;;14.93;4.53;;;14.90;99.90;;;;;;5079030;28;20135;-84
2023/05/28 07:37:22;;;;;;;15.70;3.80;;;14.90;99.90;;;;;;5075161;28;20452;-84
2023/05/28 07:39:47;;;;;;;10.80;3.63;;;15.00;99.90;;;;;;5078062;28;20245;-84
2023/05/28 07:42:14;;;;;;;6.43;3.13;;;15.10;99.90;;;;;;5081567;28;20103;-84
2023/05/28 07:44:39;;;;;;;8.13;3.25;;;15.10;99.90;;;;;;5076587;28;20491;-84
2023/05/28 07:47:05;;;;;;;9.63;3.70;;;15.20;99.90;;;;;;5073675;28;20024;-84
2023/05/28 07:49:31;;;;;;;10.43;3.83;;;15.20;99.90;;;;;;5057359;28;20074;-84
2023/05/28 07:51:56;;;;;;;11.30;4.25;;;15.30;99.90;;;;;;5071662;28;20055;-83
2023/05/28 07:54:22;;;;;;;9.73;3.55;;;15.30;99.90;;;;;;5053350;28;20054;-83
2023/05/28 07:56:48;;;;;;;8.68;3.45;;;15.40;99.90;;;;;;5075053;28;20032;-84
2023/05/28 07:59:14;;;;;;;11.23;3.65;;;15.40;99.90;;;;;;5076817;28;20055;-84
2023/05/28 08:01:40;;;;;;;11.35;3.90;;;15.50;99.90;;;;;;5075575;28;20024;-83
2023/05/28 08:04:05;;;;;;;13.10;3.78;;;15.50;99.90;;;;;;5057384;28;20062;-84
2023/05/28 08:06:32;;;;;;;11.20;3.20;;;15.60;99.90;;;;;;5078931;28;20048;-84
2023/05/28 08:08:58;;;;;;;12.57;4.28;;;15.60;99.90;;;;;;5076044;28;20025;-84
2023/05/28 08:11:24;;;;;;;14.68;4.35;;;15.60;99.90;;;;;;5076630;28;20044;-84
2023/05/28 08:13:49;;;;;;;9.00;3.97;;;15.70;99.90;;;;;;5070617;28;20035;-83
2023/05/28 08:16:15;;;;;;;10.27;3.97;;;15.80;99.90;;;;;;5078484;28;20017;-84
2023/05/28 08:18:40;;;;;;;11.75;3.83;;;15.80;99.90;;;;;;5082876;28;20024;-84
2023/05/28 08:21:09;;;;;;;10.57;4.20;;;15.90;99.90;;;;;;5069444;28;20028;-82
2023/05/28 08:23:35;;;;;;;12.18;4.43;;;16.10;99.90;;;;;;5074547;28;20397;-83
2023/05/28 08:26:01;;;;;;;10.02;4.30;;;16.10;99.90;;;;;;5079060;28;20105;-83
2023/05/28 08:28:27;;;;;;;10.75;4.00;;;16.30;99.90;;;;;;5077749;28;20110;-82
2023/05/28 08:30:53;;;;;;;12.05;4.40;;;16.40;99.90;;;;;;5072524;28;20029;-82
2023/05/28 08:33:19;;;;;;;9.85;3.08;;;16.50;99.90;;;;;;5076196;28;20090;-81
2023/05/28 08:35:44;;;;;;;7.18;3.58;;;16.60;99.90;;;;;;5089209;28;20038;-82
2023/05/28 08:38:10;;;;;;;9.73;3.70;;;16.60;99.90;;;;;;5051777;28;22015;-81
2023/05/28 08:40:43;;;;;;;7.82;3.45;;;16.70;99.90;;;;;;5077620;28;20025;-81
2023/05/28 08:43:09;;;;;;;9.95;3.00;;;16.80;99.90;;;;;;5077725;28;20038;-82
2023/05/28 08:45:36;;;;;;;15.23;4.45;;;16.80;99.90;;;;;;5084098;28;20396;-81
2023/05/28 08:48:05;;;;;;;8.45;3.20;;;16.90;99.90;;;;;;5069145;28;20028;-82
2023/05/28 08:50:31;;;;;;;7.78;3.08;;;17.00;99.90;;;;;;5089775;28;20036;-82
2023/05/28 08:52:59;;;;;;;15.20;3.65;;;16.90;99.90;;;;;;5068456;28;20448;-81
2023/05/28 08:55:24;;;;;;;17.25;4.13;;;17.00;99.90;;;;;;5075169;28;20409;-81
2023/05/28 08:57:52;;;;;;;13.25;4.22;;;17.00;99.90;;;;;;5072073;28;20240;-82
2023/05/28 09:00:18;;;;;;;14.38;3.78;;;17.00;99.90;;;;;;5074838;28;20517;-82
2023/05/28 09:02:44;;;;;;;9.05;3.65;;;17.10;99.90;;;;;;5081916;28;20482;-83
2023/05/28 09:05:10;;;;;;;10.88;3.13;;;17.10;99.90;;;;;;5084164;28;20027;-82
2023/05/28 09:07:35;;;;;;;8.00;3.20;;;17.10;99.90;;;;;;5084844;28;20028;-81
2023/05/28 09:10:03;;;;;;;10.35;2.80;;;17.30;99.90;;;;;;5078090;28;20119;-82
2023/05/28 09:12:28;;;;;;;11.48;3.38;;;17.30;99.90;;;;;;5084914;28;20053;-81
2023/05/28 09:14:54;;;;;;;15.07;3.88;;;17.40;99.90;;;;;;5076654;28;20466;-83
2023/05/28 09:17:41;;;;;;;12.48;3.50;;;17.40;99.90;;;;;;5062198;28;20027;-81
2023/05/28 09:20:12;;;;;;;14.48;3.50;;;17.40;99.90;;;;;;5060829;28;20023;-82
2023/05/28 09:22:41;;;;;;;9.18;3.15;;;17.60;99.90;;;;;;5055763;28;20062;-83
2023/05/28 09:25:08;;;;;;;12.02;3.00;;;17.60;99.90;;;;;;5077094;28;21266;-82
2023/05/28 09:27:35;;;;;;;8.45;3.78;;;17.70;99.90;;;;;;5076146;28;20086;-82
2023/05/28 09:30:07;;;;;;;10.23;3.38;;;17.70;99.90;;;;;;5074706;28;20044;-82
2023/05/28 09:32:37;;;;;;;6.63;3.70;;;17.80;99.90;;;;;;5083430;28;20043;-81
2023/05/28 09:35:06;;;;;;;6.47;3.15;;;17.90;99.90;;;;;;5084404;28;20027;-81
2023/05/28 09:37:33;;;;;;;7.55;3.00;;;18.00;99.90;;;;;;5071718;28;20078;-82
2023/05/28 09:40:00;;;;;;;7.30;2.60;;;18.00;99.90;;;;;;5072754;28;20111;-81
2023/05/28 09:42:33;;;;;;;9.55;3.33;;;18.00;99.90;;;;;;5078056;28;20019;-83
2023/05/28 09:45:00;;;;;;;8.00;2.85;;;18.10;97.70;;;;;;5080997;28;20024;-82
2023/05/28 09:47:26;;;;;;;8.27;3.88;;;18.10;97.20;;;;;;5080067;28;20163;-82
2023/05/28 09:49:51;;;;;;;15.68;3.55;;;18.10;99.90;;;;;;5075923;28;20037;-82
2023/05/28 09:52:19;;;;;;;6.90;3.00;;;18.10;99.80;;;;;;5053877;28;20040;-82
2023/05/28 09:54:53;;;;;;;8.73;3.47;;;18.20;99.90;;;;;;5083143;28;20035;-81
2023/05/28 09:57:26;;;;;;;14.07;4.05;;;18.20;99.60;;;;;;5086063;28;20023;-80
2023/05/28 09:59:55;;;;;;;8.32;3.42;;;18.30;98.20;;;;;;5083163;28;20032;-81
2023/05/28 10:02:55;;;;;;;8.68;2.92;;;18.40;99.20;;;;;;5080505;28;20020;-81
2023/05/28 10:05:22;;;;;;;6.65;3.28;;;18.40;99.80;;;;;;5076526;28;20033;-80
2023/05/28 10:07:53;;;;;;;9.00;3.20;;;18.40;97.60;;;;;;5082085;28;20033;-81
2023/05/28 10:10:20;;;;;;;11.00;3.10;;;18.40;98.70;;;;;;5075663;28;20024;-81
2023/05/28 10:12:47;;;;;;;10.32;3.33;;;18.40;98.20;;;;;;5081974;28;20079;-80
2023/05/28 10:15:14;;;;;;;6.07;2.92;;;18.40;98.20;;;;;;5074685;28;20520;-85
2023/05/28 10:17:41;;;;;;;8.18;3.05;;;18.50;99.00;;;;;;5077699;28;20074;-81
2023/05/28 10:20:10;;;;;;;9.75;3.45;;;18.50;98.20;;;;;;5085997;28;20154;-81
2023/05/28 10:22:37;;;;;;;9.75;3.97;;;18.50;95.60;;;;;;5077231;28;20031;-81
2023/05/28 10:25:08;;;;;;;10.02;3.60;;;18.50;95.00;;;;;;5076796;28;20121;-81
2023/05/28 10:27:35;;;;;;;9.90;3.67;;;18.50;98.00;;;;;;5082158;28;20170;-80
2023/05/28 10:30:05;;;;;;;14.48;4.57;;;18.50;98.90;;;;;;5073938;28;20553;-81
2023/05/28 10:32:41;;;;;;;7.85;3.75;;;18.50;96.80;;;;;;5076015;28;20039;-81
2023/05/28 10:35:08;;;;;;;5.93;2.47;;;18.60;99.00;;;;;;5094406;28;20492;-80
2023/05/28 10:37:35;;;;;;;10.93;3.38;;;18.70;99.10;;;;;;5088394;28;20497;-81
2023/05/28 10:40:01;;;;;;;5.70;2.83;;;18.70;96.30;;;;;;5080028;28;20031;-81
2023/05/28 10:42:27;;;;;;;4.18;3.03;;;18.60;92.40;;;;;;5088145;28;20074;-81
2023/05/28 10:45:08;;;;;;;7.90;3.20;;;18.70;94.00;;;;;;5095869;28;20328;-80
2023/05/28 10:47:39;;;;;;;13.85;4.30;;;18.70;95.80;;;;;;5083067;28;20120;-82
2023/05/28 10:50:08;;;;;;;8.95;3.33;;;18.80;97.50;;;;;;5082556;28;20024;-80
2023/05/28 10:52:34;;;;;;;6.85;2.90;;;18.80;98.30;;;;;;5081447;28;20474;-82
2023/05/28 10:55:03;;;;;;;8.07;3.17;;;18.80;98.40;;;;;;5089914;28;20043;-81
2023/05/28 10:57:46;;;;;;;10.25;3.17;;;18.90;99.90;;;;;;5085668;28;20024;-82
2023/05/28 11:00:14;;;;;;;8.10;3.58;;;19.00;99.90;;;;;;5076157;28;20102;-81
2023/05/28 11:02:46;;;;;;;9.52;3.63;;;19.00;99.90;;;;;;5076229;28;20027;-81
2023/05/28 11:05:12;;;;;;;6.20;3.03;;;19.00;99.90;;;;;;5062360;28;20028;-81
2023/05/28 11:07:44;;;;;;;9.80;3.58;;;19.10;99.90;;;;;;5077231;28;20035;-82
2023/05/28 11:10:16;;;;;;;8.45;3.42;;;19.20;99.90;;;;;;5084041;28;20489;-81
2023/05/28 11:12:43;;;;;;;5.18;3.03;;;19.20;99.90;;;;;;5086810;28;20512;-81
2023/05/28 11:15:11;;;;;;;9.10;3.42;;;19.30;99.50;;;;;;5085666;28;20058;-81
2023/05/28 11:17:43;;;;;;;7.90;3.67;;;19.30;99.90;;;;;;5082223;28;20028;-81
2023/05/28 11:20:25;;;;;;;14.30;4.63;;;19.40;98.10;;;;;;5084367;28;20049;-81
2023/05/28 11:22:52;;;;;;;7.65;3.63;;;19.30;97.80;;;;;;5077713;28;20050;-81
2023/05/28 11:25:20;;;;;;;10.45;3.78;;;19.40;97.30;;;;;;5079956;28;20132;-80
2023/05/28 11:27:47;;;;;;;9.70;3.15;;;19.50;97.50;;;;;;5070414;28;20078;-81
2023/05/28 11:30:18;;;;;;;5.75;3.60;;;19.50;96.30;;;;;;5081456;28;20039;-81
2023/05/28 11:32:45;;;;;;;4.30;2.67;;;19.50;95.10;;;;;;5075426;28;20032;-81
2023/05/28 11:35:12;;;;;;;8.63;3.80;;;19.60;96.00;;;;;;5083656;28;20370;-82
2023/05/28 11:37:40;;;;;;;8.07;3.00;;;19.60;94.20;;;;;;5090926;28;20028;-81
2023/05/28 11:40:10;;;;;;;4.38;2.63;;;19.60;91.00;;;;;;5070793;28;20097;-81
2023/05/28 11:42:43;;;;;;;8.68;3.15;;;19.60;95.70;;;;;;5087278;28;20027;-81
2023/05/28 11:45:11;;;;;;;6.97;3.22;;;19.80;93.50;;;;;;5090542;28;20031;-84
2023/05/28 11:47:37;;;;;;;7.63;3.15;;;19.90;95.60;;;;;;5092469;28;20028;-83
2023/05/28 11:50:10;;;;;;;9.52;3.38;;;19.90;90.50;;;;;;5092952;28;20024;-83
2023/05/28 11:52:36;;;;;;;6.45;2.38;;;19.90;91.00;;;;;;5090046;28;20039;-82
2023/05/28 11:55:02;;;;;;;8.13;3.42;;;19.90;82.50;;;;;;5097204;28;20028;-81
2023/05/28 11:57:33;;;;;;;9.50;3.60;;;19.90;83.40;;;;;;5075407;28;20051;-82
2023/05/28 12:00:03;;;;;;;5.30;2.83;;;19.90;79.00;;;;;;5074508;28;20016;-82
2023/05/28 12:02:29;;;;;;;4.22;2.58;;;20.00;83.20;;;;;;5075293;28;20093;-82
2023/05/28 12:05:02;;;;;;;7.20;3.05;;;20.10;85.90;;;;;;5069505;28;20032;-82
2023/05/28 12:07:34;;;;;;;6.78;2.85;;;20.10;82.60;;;;;;5078380;28;20103;-81
2023/05/28 12:10:08;;;;;;;7.05;3.17;;;20.10;80.00;;;;;;5074297;28;20032;-81
2023/05/28 12:12:39;;;;;;;9.43;3.00;;;20.10;78.60;;;;;;5076975;28;20093;-81
2023/05/28 12:15:05;;;;;;;5.88;2.83;;;20.10;74.30;;;;;;5085035;28;20028;-81
2023/05/28 12:17:36;;;;;;;4.75;2.58;;;20.10;76.80;;;;;;5080394;28;20074;-81
2023/05/28 12:20:06;;;;;;;6.15;2.58;;;20.20;74.40;;;;;;5066696;28;20432;-85
2023/05/28 12:22:33;;;;;;;7.45;3.58;;;20.20;72.60;;;;;;5070943;28;20036;-82
2023/05/28 12:25:00;;;;;;;8.30;3.75;;;20.20;69.20;;;;;;5086741;28;20120;-85
2023/05/28 12:27:26;;;;;;;5.47;3.05;;;20.20;70.80;;;;;;5080103;28;20032;-82
2023/05/28 12:29:52;;;;;;;7.72;3.17;;;20.20;73.60;;;;;;5081030;28;20047;-82
2023/05/28 12:32:19;;;;;;;7.00;2.72;;;20.20;73.90;;;;;;5068767;28;20043;-82
2023/05/28 12:34:44;;;;;;;6.03;2.65;;;20.20;76.30;;;;;;5084116;28;20516;-81
2023/05/28 12:37:10;;;;;;;12.18;3.40;;;20.20;72.90;;;;;;5090697;28;20032;-82
2023/05/28 12:39:37;;;;;;;7.40;3.28;;;20.20;76.90;;;;;;5082072;28;20476;-81
2023/05/28 12:42:03;;;;;;;9.73;3.05;;;20.30;77.80;;;;;;5078515;28;20035;-82
2023/05/28 12:44:29;;;;;;;7.88;3.50;;;20.30;79.10;;;;;;5079373;28;20028;-82